Time;durP1;ratioP1;P1;durP2;ratioP2;P2;SDS_P1;SDS_P2;PMS_P1;PMS_P2;Temp;Humidity;BMP_temperature;BMP_pressure;BME280_temperature;BME280_humidity;BME280_pressure;Samples;Min_cycle;Max_cycle;Signal;HPM_P1;HPM_P2
2022/02/19 00:01:04;;;;;;;12.75;2.60;;;11.80;83.60;;;;;;5024549;28;20032;-59
2022/02/19 00:03:31;;;;;;;9.32;2.28;;;11.90;83.80;;;;;;5023268;28;20029;-64
2022/02/19 00:05:56;;;;;;;9.90;2.33;;;11.90;83.70;;;;;;5024072;28;20075;-62
2022/02/19 00:08:22;;;;;;;10.48;2.08;;;11.80;84.00;;;;;;5022235;28;20025;-61
2022/02/19 00:10:47;;;;;;;8.98;2.50;;;11.80;84.20;;;;;;5024423;28;20026;-62
2022/02/19 00:13:13;;;;;;;17.02;3.08;;;11.80;84.30;;;;;;5023297;28;20111;-62
2022/02/19 00:15:39;;;;;;;10.85;2.88;;;11.80;84.40;;;;;;5023590;28;20025;-61
2022/02/19 00:18:04;;;;;;;5.60;2.00;;;11.80;84.50;;;;;;5023276;28;20492;-60
2022/02/19 00:20:32;;;;;;;7.93;2.25;;;11.70;84.60;;;;;;5023370;28;20037;-63
2022/02/19 00:22:58;;;;;;;8.45;2.15;;;11.70;84.80;;;;;;5021626;28;20548;-63
2022/02/19 00:25:23;;;;;;;14.02;3.00;;;11.70;85.20;;;;;;5021582;28;20124;-61
2022/02/19 00:27:49;;;;;;;11.57;1.98;;;11.70;85.40;;;;;;5024401;28;20037;-63
2022/02/19 00:30:14;;;;;;;7.63;2.03;;;11.70;85.60;;;;;;5023855;28;20053;-63
2022/02/19 00:32:40;;;;;;;8.20;2.42;;;11.70;85.60;;;;;;5023967;28;20366;-60
2022/02/19 00:35:05;;;;;;;7.15;2.20;;;11.70;85.80;;;;;;5021910;28;20037;-62
2022/02/19 00:37:31;;;;;;;7.47;2.53;;;11.70;85.80;;;;;;5019020;28;20056;-64
2022/02/19 00:39:57;;;;;;;9.80;2.67;;;11.70;86.10;;;;;;5024302;28;20036;-58
2022/02/19 00:42:23;;;;;;;6.38;2.50;;;11.70;86.30;;;;;;5025887;28;20021;-60
2022/02/19 00:44:48;;;;;;;7.07;2.25;;;11.70;86.60;;;;;;5023455;28;20049;-63
2022/02/19 00:47:14;;;;;;;10.25;2.33;;;11.70;86.70;;;;;;5022156;28;20147;-64
2022/02/19 00:49:40;;;;;;;11.93;2.60;;;11.70;86.80;;;;;;5022541;28;20022;-61
2022/02/19 00:52:06;;;;;;;9.85;2.97;;;11.60;87.00;;;;;;5021996;28;20126;-61
2022/02/19 00:54:31;;;;;;;9.82;2.55;;;11.60;87.20;;;;;;5021933;28;20052;-61
2022/02/19 00:56:57;;;;;;;6.20;2.47;;;11.60;87.30;;;;;;5024226;28;20029;-61
2022/02/19 00:59:22;;;;;;;12.05;2.55;;;11.60;87.20;;;;;;5022804;28;20021;-59
2022/02/19 01:01:48;;;;;;;8.07;3.20;;;11.60;87.50;;;;;;5022418;28;20025;-62
2022/02/19 01:04:13;;;;;;;7.28;2.90;;;11.60;87.50;;;;;;5023644;28;20071;-59
2022/02/19 01:06:39;;;;;;;8.43;2.88;;;11.60;87.50;;;;;;5022013;28;20115;-65
2022/02/19 01:09:05;;;;;;;8.70;3.80;;;11.50;87.30;;;;;;5020896;28;20045;-63
2022/02/19 01:11:30;;;;;;;7.00;3.33;;;11.60;87.50;;;;;;5023118;28;20483;-60
2022/02/19 01:13:56;;;;;;;7.35;3.00;;;11.50;87.60;;;;;;5023051;28;20021;-62
2022/02/19 01:16:21;;;;;;;7.20;3.03;;;11.50;87.60;;;;;;5022906;28;20044;-59
2022/02/19 01:18:47;;;;;;;9.93;3.17;;;11.50;87.70;;;;;;5020911;28;20322;-59
2022/02/19 01:21:18;;;;;;;8.55;3.55;;;11.50;87.80;;;;;;5006349;28;20113;-60
2022/02/19 01:23:44;;;;;;;8.60;3.78;;;11.50;87.80;;;;;;5021474;28;20057;-63
2022/02/19 01:26:09;;;;;;;7.05;3.20;;;11.50;87.70;;;;;;5021548;28;20349;-64
2022/02/19 01:28:35;;;;;;;8.75;3.05;;;11.50;87.70;;;;;;5006351;28;20470;-61
2022/02/19 01:31:00;;;;;;;8.05;3.25;;;11.50;87.60;;;;;;5022819;28;20077;-63
2022/02/19 01:33:26;;;;;;;9.40;3.85;;;11.40;87.60;;;;;;5023388;28;20124;-61
2022/02/19 01:35:51;;;;;;;8.10;2.60;;;11.40;87.70;;;;;;5021992;28;20801;-62
2022/02/19 01:38:18;;;;;;;7.97;3.20;;;11.40;87.80;;;;;;5020955;28;20475;-60
2022/02/19 01:40:44;;;;;;;5.93;2.50;;;11.40;87.90;;;;;;5022855;28;20457;-59
2022/02/19 01:43:10;;;;;;;5.03;2.72;;;11.40;87.80;;;;;;5020873;28;20045;-59
2022/02/19 01:45:36;;;;;;;9.43;3.15;;;11.40;87.70;;;;;;5023960;28;20025;-64
2022/02/19 01:48:02;;;;;;;7.28;3.10;;;11.30;87.70;;;;;;5006340;28;20060;-63
2022/02/19 01:50:28;;;;;;;4.00;2.67;;;11.30;87.70;;;;;;5023580;28;20029;-64
2022/02/19 01:52:53;;;;;;;8.95;2.70;;;11.30;87.80;;;;;;5019270;28;20025;-62
2022/02/19 01:55:19;;;;;;;8.35;3.53;;;11.20;87.80;;;;;;5021153;28;20111;-59
2022/02/19 01:57:44;;;;;;;6.95;2.97;;;11.30;88.00;;;;;;5021617;28;20531;-60
2022/02/19 02:00:10;;;;;;;5.40;2.45;;;11.30;88.00;;;;;;5021665;28;20036;-60
2022/02/19 02:02:36;;;;;;;4.82;3.08;;;11.30;88.10;;;;;;5021983;28;20850;-62
2022/02/19 02:05:01;;;;;;;10.48;2.83;;;11.20;88.10;;;;;;5020134;28;20547;-62
2022/02/19 02:07:27;;;;;;;7.00;3.17;;;11.20;87.90;;;;;;5018329;28;20048;-63
2022/02/19 02:09:52;;;;;;;5.18;2.78;;;11.20;88.20;;;;;;5020051;28;20132;-60
2022/02/19 02:12:18;;;;;;;5.28;2.60;;;11.20;88.30;;;;;;5022558;28;20137;-61
2022/02/19 02:14:44;;;;;;;7.38;3.03;;;11.20;88.50;;;;;;5022520;28;20034;-60
2022/02/19 02:17:10;;;;;;;9.95;3.05;;;11.10;88.50;;;;;;5022441;28;20588;-61
2022/02/19 02:19:35;;;;;;;8.30;3.30;;;11.10;88.50;;;;;;5018986;28;20268;-64
2022/02/19 02:22:05;;;;;;;4.75;2.78;;;11.10;88.50;;;;;;5020065;28;20470;-61
2022/02/19 02:24:32;;;;;;;5.68;3.10;;;11.10;88.50;;;;;;5019942;28;20029;-61
2022/02/19 02:26:58;;;;;;;6.00;3.22;;;11.10;88.50;;;;;;5020295;28;20038;-60
2022/02/19 02:29:23;;;;;;;8.82;3.63;;;11.00;88.40;;;;;;5020687;28;20049;-62
2022/02/19 02:31:49;;;;;;;7.70;3.05;;;11.10;88.50;;;;;;5022282;28;20045;-61
2022/02/19 02:34:14;;;;;;;9.60;3.25;;;11.10;88.70;;;;;;5019240;28;20469;-63
2022/02/19 02:36:40;;;;;;;5.32;2.65;;;11.10;88.80;;;;;;5020390;28;20084;-58
2022/02/19 02:39:05;;;;;;;6.38;3.33;;;11.10;88.80;;;;;;5022744;28;20112;-60
2022/02/19 02:41:31;;;;;;;8.18;2.80;;;11.00;88.70;;;;;;5024815;28;20026;-63
2022/02/19 02:43:57;;;;;;;5.70;2.67;;;11.00;88.60;;;;;;5024157;28;20033;-64
2022/02/19 02:46:22;;;;;;;4.30;2.50;;;11.00;88.70;;;;;;5022378;28;20036;-60
2022/02/19 02:48:48;;;;;;;7.05;2.78;;;11.00;88.70;;;;;;5021935;28;20526;-62
2022/02/19 02:51:13;;;;;;;12.65;3.10;;;11.00;88.90;;;;;;5025793;28;20026;-63
2022/02/19 02:53:39;;;;;;;8.27;3.45;;;11.00;89.10;;;;;;5024571;28;20033;-61
2022/02/19 02:56:04;;;;;;;8.23;2.75;;;11.00;89.40;;;;;;5020855;28;20120;-62
2022/02/19 02:58:30;;;;;;;7.57;3.08;;;11.00;89.40;;;;;;5002877;28;20069;-61
2022/02/19 03:00:55;;;;;;;6.25;3.67;;;11.00;89.30;;;;;;5019001;28;20116;-63
2022/02/19 03:03:21;;;;;;;6.07;3.05;;;11.00;89.30;;;;;;5022707;28;20106;-62
2022/02/19 03:05:47;;;;;;;6.05;3.42;;;10.90;89.40;;;;;;5023942;28;20147;-60
2022/02/19 03:08:12;;;;;;;5.15;2.85;;;10.90;89.20;;;;;;5019609;28;20029;-62
2022/02/19 03:10:38;;;;;;;4.70;2.90;;;10.90;89.10;;;;;;5020367;28;20047;-61
2022/02/19 03:13:03;;;;;;;6.38;3.25;;;10.90;88.90;;;;;;5020052;28;20042;-59
2022/02/19 03:15:29;;;;;;;7.32;3.00;;;10.90;88.70;;;;;;5019197;28;20595;-63
2022/02/19 03:17:54;;;;;;;5.10;2.92;;;10.90;88.80;;;;;;5022983;28;20033;-61
2022/02/19 03:20:22;;;;;;;6.28;3.25;;;10.90;88.80;;;;;;5023006;28;20029;-61
2022/02/19 03:22:48;;;;;;;6.78;2.95;;;10.90;88.90;;;;;;5003948;28;20535;-62
2022/02/19 03:25:13;;;;;;;5.47;2.53;;;10.90;89.00;;;;;;5019493;28;20072;-60
2022/02/19 03:27:39;;;;;;;7.38;2.90;;;10.80;89.10;;;;;;5019342;28;20464;-60
2022/02/19 03:30:06;;;;;;;4.90;2.90;;;10.90;89.00;;;;;;5020366;28;20041;-59
2022/02/19 03:32:32;;;;;;;5.65;2.65;;;10.80;88.70;;;;;;5004633;28;20042;-59
2022/02/19 03:34:57;;;;;;;4.50;2.90;;;10.80;88.80;;;;;;5021367;28;20030;-63
2022/02/19 03:37:23;;;;;;;6.03;2.85;;;10.80;88.90;;;;;;5018024;28;20156;-62
2022/02/19 03:39:48;;;;;;;10.00;2.58;;;10.80;88.70;;;;;;5002906;28;20056;-59
2022/02/19 03:42:14;;;;;;;7.38;3.47;;;10.80;88.70;;;;;;5022268;28;20037;-62
2022/02/19 03:44:39;;;;;;;6.60;2.85;;;10.80;88.60;;;;;;5022405;28;20044;-60
2022/02/19 03:47:05;;;;;;;6.28;2.97;;;10.80;88.50;;;;;;5022372;28;20029;-60
2022/02/19 03:49:31;;;;;;;6.43;2.60;;;10.80;88.30;;;;;;5020021;28;20025;-61
2022/02/19 03:51:56;;;;;;;8.20;2.78;;;10.80;88.40;;;;;;5020695;28;20041;-59
2022/02/19 03:54:22;;;;;;;5.45;2.58;;;10.70;88.40;;;;;;5020380;28;20104;-61
2022/02/19 03:56:47;;;;;;;6.35;2.42;;;10.70;88.40;;;;;;5022473;28;20037;-60
2022/02/19 03:59:14;;;;;;;3.92;2.17;;;10.70;88.30;;;;;;5021667;28;20053;-63
2022/02/19 04:01:41;;;;;;;6.07;2.92;;;10.70;88.00;;;;;;5020624;28;20068;-63
2022/02/19 04:04:06;;;;;;;5.00;2.60;;;10.70;88.00;;;;;;5019524;28;20022;-61
2022/02/19 04:06:32;;;;;;;5.07;2.65;;;10.80;88.10;;;;;;5018049;28;20037;-62
2022/02/19 04:08:57;;;;;;;4.25;2.40;;;10.70;88.20;;;;;;5020613;28;20029;-61
2022/02/19 04:11:23;;;;;;;6.53;2.70;;;10.70;88.10;;;;;;5020863;28;20048;-59
2022/02/19 04:13:48;;;;;;;7.55;3.15;;;10.60;88.10;;;;;;5021696;28;20329;-63
2022/02/19 04:16:14;;;;;;;5.82;2.55;;;10.60;88.20;;;;;;5020630;28;20026;-60
2022/02/19 04:18:39;;;;;;;5.43;2.20;;;10.60;88.00;;;;;;5020079;28;20026;-60
2022/02/19 04:21:06;;;;;;;5.28;2.58;;;10.60;88.20;;;;;;5021076;28;20448;-60
2022/02/19 04:23:32;;;;;;;3.92;2.50;;;10.60;88.00;;;;;;5020043;28;20055;-64
2022/02/19 04:25:57;;;;;;;6.75;2.42;;;10.50;87.90;;;;;;5022655;28;20102;-61
2022/02/19 04:28:24;;;;;;;5.03;2.50;;;10.50;88.10;;;;;;5019324;28;20022;-61
2022/02/19 04:30:49;;;;;;;5.53;2.63;;;10.50;88.10;;;;;;5020977;28;20367;-61
2022/02/19 04:33:15;;;;;;;6.90;2.72;;;10.40;88.10;;;;;;5019240;28;20044;-63
2022/02/19 04:35:40;;;;;;;6.88;2.42;;;10.40;88.20;;;;;;5022196;28;20033;-59
2022/02/19 04:38:06;;;;;;;4.68;2.38;;;10.40;88.30;;;;;;5021687;28;20488;-60
2022/02/19 04:40:31;;;;;;;4.40;2.17;;;10.40;88.50;;;;;;5021229;28;20025;-61
2022/02/19 04:42:57;;;;;;;5.95;2.42;;;10.30;88.40;;;;;;5022069;28;20037;-61
2022/02/19 04:45:23;;;;;;;5.38;2.50;;;10.30;88.50;;;;;;5023167;28;20373;-62
2022/02/19 04:47:49;;;;;;;5.20;2.10;;;10.30;88.60;;;;;;5021563;28;20099;-62
2022/02/19 04:50:14;;;;;;;5.50;2.20;;;10.30;88.70;;;;;;5026166;28;20135;-63
2022/02/19 04:52:40;;;;;;;6.13;2.28;;;10.30;88.80;;;;;;5020606;28;20982;-59
2022/02/19 04:55:05;;;;;;;6.90;2.33;;;10.30;88.60;;;;;;5024435;28;20100;-62
2022/02/19 04:57:31;;;;;;;5.03;2.08;;;10.30;88.60;;;;;;5026488;28;20029;-63
2022/02/19 04:59:56;;;;;;;4.60;2.33;;;10.30;88.60;;;;;;5025137;28;20049;-59
2022/02/19 05:02:22;;;;;;;5.10;2.40;;;10.20;88.60;;;;;;5026715;28;20084;-62
2022/02/19 05:04:48;;;;;;;5.18;2.17;;;10.20;88.60;;;;;;5024649;28;20108;-65
2022/02/19 05:07:13;;;;;;;4.40;2.30;;;10.20;88.90;;;;;;5022986;28;20086;-61
2022/02/19 05:09:39;;;;;;;6.20;2.67;;;10.20;88.60;;;;;;5023434;28;20299;-63
2022/02/19 05:12:04;;;;;;;4.05;2.00;;;10.20;88.60;;;;;;5022545;28;20563;-64
2022/02/19 05:14:30;;;;;;;5.45;2.80;;;10.20;88.50;;;;;;5023826;28;20459;-63
2022/02/19 05:16:56;;;;;;;5.00;2.17;;;10.10;88.60;;;;;;5025037;28;20540;-60
2022/02/19 05:19:21;;;;;;;7.10;2.42;;;10.10;88.50;;;;;;5024115;28;20032;-60
2022/02/19 05:21:47;;;;;;;7.18;2.20;;;10.10;88.50;;;;;;5023765;28;20291;-64
2022/02/19 05:24:12;;;;;;;7.72;2.20;;;10.10;88.50;;;;;;5021972;28;20064;-62
2022/02/19 05:26:38;;;;;;;5.95;2.47;;;10.10;88.50;;;;;;5020913;28;20102;-62
2022/02/19 05:29:04;;;;;;;6.22;2.35;;;10.10;88.60;;;;;;5023954;28;20036;-60
2022/02/19 05:31:29;;;;;;;5.57;2.60;;;10.10;88.60;;;;;;5021821;28;20095;-62
2022/02/19 05:33:55;;;;;;;5.60;2.45;;;10.00;89.00;;;;;;5022781;28;20514;-61
2022/02/19 05:36:20;;;;;;;7.15;2.53;;;10.00;89.00;;;;;;5020442;28;20353;-62
2022/02/19 05:38:46;;;;;;;6.13;2.40;;;10.00;89.20;;;;;;5023464;28;20911;-62
2022/02/19 05:41:11;;;;;;;6.50;2.30;;;9.80;89.10;;;;;;5024048;28;20025;-60
2022/02/19 05:43:37;;;;;;;6.97;2.17;;;10.00;89.50;;;;;;5023989;28;20029;-64
2022/02/19 05:46:02;;;;;;;9.93;2.58;;;10.00;89.50;;;;;;5022344;28;20040;-60
2022/02/19 05:48:28;;;;;;;7.25;2.22;;;10.00;89.50;;;;;;5021907;28;20068;-61
2022/02/19 05:50:54;;;;;;;6.85;2.67;;;9.90;89.60;;;;;;5022376;28;20045;-62
2022/02/19 05:53:19;;;;;;;6.18;2.67;;;9.90;89.60;;;;;;5024697;28;20033;-63
2022/02/19 05:55:45;;;;;;;10.50;2.58;;;9.90;89.70;;;;;;5027640;28;20029;-59
2022/02/19 05:58:11;;;;;;;5.78;2.60;;;9.90;89.80;;;;;;5025222;28;20481;-62
2022/02/19 06:00:37;;;;;;;10.27;2.80;;;9.90;89.80;;;;;;5025022;28;20025;-63
2022/02/19 06:03:02;;;;;;;7.13;2.50;;;9.90;90.00;;;;;;5025903;28;20779;-62
2022/02/19 06:05:28;;;;;;;16.00;2.60;;;9.90;90.10;;;;;;5025466;28;20052;-60
2022/02/19 06:07:53;;;;;;;11.93;2.90;;;9.90;90.10;;;;;;5024088;28;20028;-62
2022/02/19 06:10:19;;;;;;;14.32;3.28;;;9.90;90.10;;;;;;5025391;28;20045;-59
2022/02/19 06:12:44;;;;;;;13.07;2.88;;;9.90;90.10;;;;;;5024661;28;20060;-60
2022/02/19 06:15:10;;;;;;;11.52;3.17;;;9.90;90.10;;;;;;5025125;28;20041;-61
2022/02/19 06:17:35;;;;;;;8.80;3.42;;;9.90;90.20;;;;;;5024493;28;20045;-60
2022/02/19 06:20:01;;;;;;;23.33;4.53;;;9.90;90.20;;;;;;5024760;28;20044;-60
2022/02/19 06:22:26;;;;;;;13.15;3.38;;;9.90;90.10;;;;;;5024088;28;20029;-61
2022/02/19 06:24:52;;;;;;;20.15;4.70;;;9.80;90.10;;;;;;5025837;28;20495;-60
2022/02/19 06:27:18;;;;;;;32.53;4.53;;;9.80;90.10;;;;;;5022844;28;20044;-58
2022/02/19 06:29:43;;;;;;;21.92;4.53;;;9.90;90.20;;;;;;5019462;28;20037;-62
2022/02/19 06:32:09;;;;;;;18.45;4.47;;;9.80;90.20;;;;;;5022803;28;20121;-60
2022/02/19 06:34:35;;;;;;;23.83;4.22;;;9.90;90.20;;;;;;5008571;28;20045;-63
2022/02/19 06:37:00;;;;;;;14.70;3.55;;;9.80;90.10;;;;;;5021972;28;20446;-60
2022/02/19 06:39:26;;;;;;;12.68;4.22;;;9.80;90.20;;;;;;5019420;28;20044;-64
2022/02/19 06:41:52;;;;;;;16.70;4.03;;;9.80;90.20;;;;;;5020358;28;20848;-61
2022/02/19 06:44:17;;;;;;;27.35;4.15;;;9.80;90.20;;;;;;5021452;28;20033;-62
2022/02/19 06:46:43;;;;;;;15.65;4.50;;;9.80;90.30;;;;;;5024217;28;20068;-61
2022/02/19 06:49:08;;;;;;;25.00;4.47;;;9.80;90.40;;;;;;5021450;28;20131;-61
2022/02/19 06:51:34;;;;;;;21.25;4.82;;;9.80;90.30;;;;;;5021850;28;20120;-60
2022/02/19 06:54:00;;;;;;;23.10;3.95;;;9.80;90.40;;;;;;5017161;28;20026;-61
2022/02/19 06:56:27;;;;;;;43.42;5.95;;;9.80;90.40;;;;;;5020072;28;20103;-62
2022/02/19 06:58:54;;;;;;;116.18;9.20;;;9.80;90.40;;;;;;5022275;28;20139;-61
2022/02/19 07:01:20;;;;;;;102.80;10.52;;;9.80;90.50;;;;;;5005564;28;20101;-58
2022/02/19 07:03:45;;;;;;;84.00;9.38;;;9.80;90.60;;;;;;5019763;28;20124;-58
2022/02/19 07:06:11;;;;;;;174.18;15.05;;;9.80;90.60;;;;;;5021433;28;20037;-60
2022/02/19 07:08:36;;;;;;;130.77;11.15;;;9.80;90.50;;;;;;5018017;28;20089;-60
2022/02/19 07:11:02;;;;;;;118.60;11.10;;;9.80;90.50;;;;;;5022260;28;20087;-60
2022/02/19 07:13:27;;;;;;;114.38;11.52;;;9.80;90.50;;;;;;5023142;28;20484;-61
2022/02/19 07:15:53;;;;;;;103.25;9.07;;;9.80;90.60;;;;;;5022893;28;20029;-60
2022/02/19 07:18:18;;;;;;;104.38;10.15;;;9.80;90.60;;;;;;5021653;28;20033;-63
2022/02/19 07:20:47;;;;;;;89.63;9.90;;;9.80;90.50;;;;;;5019143;28;20106;-63
2022/02/19 07:23:13;;;;;;;106.57;10.25;;;9.80;90.60;;;;;;5018018;28;20079;-62
2022/02/19 07:25:38;;;;;;;103.15;9.73;;;9.80;90.50;;;;;;5021265;28;20759;-59
2022/02/19 07:28:04;;;;;;;66.07;8.55;;;9.70;90.50;;;;;;5021185;28;20040;-63
2022/02/19 07:30:29;;;;;;;101.35;9.30;;;9.80;90.60;;;;;;5020078;28;20046;-62
2022/02/19 07:32:55;;;;;;;97.45;9.93;;;9.80;90.50;;;;;;5002093;28;20497;-62
2022/02/19 07:35:21;;;;;;;92.47;8.98;;;9.80;90.50;;;;;;5018462;28;20029;-62
2022/02/19 07:37:47;;;;;;;84.18;10.05;;;9.80;90.50;;;;;;5018087;28;20044;-61
2022/02/19 07:40:13;;;;;;;101.97;9.88;;;9.80;90.60;;;;;;5021648;28;20025;-62
2022/02/19 07:42:38;;;;;;;81.57;10.55;;;9.80;90.60;;;;;;5021409;28;20038;-59
2022/02/19 07:45:04;;;;;;;67.25;8.85;;;9.80;90.60;;;;;;5018291;28;20021;-60
2022/02/19 07:47:31;;;;;;;77.55;8.13;;;9.70;90.60;;;;;;5017814;28;20026;-60
2022/02/19 07:58:19;;;;;;;78.88;8.48;;;9.70;90.60;;;;;;5020946;28;20032;-62
2022/02/19 08:00:48;;;;;;;72.60;7.22;;;9.70;90.60;;;;;;5018744;28;20025;-63
2022/02/19 08:03:14;;;;;;;52.55;6.78;;;9.70;90.60;;;;;;5020090;28;20057;-60
2022/02/19 08:05:40;;;;;;;46.67;6.50;;;9.70;90.70;;;;;;5022045;28;20242;-63
2022/02/19 08:08:05;;;;;;;48.10;6.88;;;9.70;90.70;;;;;;5018917;28;20510;-59
2022/02/19 08:10:31;;;;;;;64.97;7.10;;;9.70;90.70;;;;;;5020548;28;20052;-64
2022/02/19 08:12:56;;;;;;;36.40;4.88;;;9.70;90.70;;;;;;5020377;28;20452;-63
2022/02/19 08:15:22;;;;;;;55.38;5.88;;;9.60;90.70;;;;;;5022417;28;20609;-61
2022/02/19 08:17:47;;;;;;;29.65;4.80;;;9.60;90.60;;;;;;5025226;28;20068;-63
2022/02/19 08:20:13;;;;;;;19.33;4.22;;;9.70;90.60;;;;;;5024750;28;20109;-59
2022/02/19 08:22:38;;;;;;;33.22;5.63;;;9.60;90.50;;;;;;5005056;28;20033;-63
2022/02/19 08:25:04;;;;;;;33.55;5.35;;;9.60;90.60;;;;;;5022151;28;20113;-61
2022/02/19 08:27:34;;;;;;;37.72;5.25;;;9.60;90.60;;;;;;5023198;28;20044;-60
2022/02/19 08:30:00;;;;;;;35.35;5.82;;;9.60;90.60;;;;;;5025759;28;20045;-58
2022/02/19 08:32:26;;;;;;;45.38;5.75;;;9.60;90.90;;;;;;5023691;28;20472;-60
2022/02/19 08:34:51;;;;;;;31.05;4.88;;;9.60;90.60;;;;;;5025252;28;20521;-61
2022/02/19 08:37:17;;;;;;;31.88;4.32;;;9.60;90.60;;;;;;5003786;28;20523;-61
2022/02/19 08:39:42;;;;;;;22.13;3.97;;;9.60;90.60;;;;;;5023457;28;20056;-64
2022/02/19 08:42:09;;;;;;;24.80;4.25;;;9.60;90.50;;;;;;5020664;28;20531;-63
2022/02/19 08:44:34;;;;;;;26.45;3.83;;;9.60;90.40;;;;;;5021306;28;20385;-62
2022/02/19 08:47:00;;;;;;;23.65;3.60;;;9.60;90.30;;;;;;5017307;28;20052;-58
2022/02/19 08:49:26;;;;;;;18.75;2.75;;;9.50;90.20;;;;;;5023084;28;20061;-61
2022/02/19 08:51:51;;;;;;;12.88;3.30;;;9.60;90.20;;;;;;5006991;28;20128;-63
2022/02/19 08:54:17;;;;;;;21.25;3.53;;;9.50;90.20;;;;;;5023454;28;20049;-60
2022/02/19 08:56:44;;;;;;;21.42;3.63;;;9.60;90.20;;;;;;5025947;28;20029;-62
2022/02/19 08:59:10;;;;;;;15.77;3.15;;;9.60;90.20;;;;;;5024435;28;20291;-62
2022/02/19 09:01:35;;;;;;;11.75;2.47;;;9.60;90.10;;;;;;5021939;28;20078;-60
2022/02/19 09:04:03;;;;;;;11.95;2.67;;;9.60;90.10;;;;;;5029993;28;20377;-63
2022/02/19 09:06:29;;;;;;;17.80;3.28;;;9.60;90.10;;;;;;5022001;28;20094;-59
2022/02/19 09:08:54;;;;;;;15.63;2.83;;;9.60;90.00;;;;;;5027764;28;20029;-61
2022/02/19 09:11:20;;;;;;;19.40;3.78;;;9.60;90.10;;;;;;5026762;28;20030;-59
2022/02/19 09:13:47;;;;;;;13.13;2.75;;;9.60;90.10;;;;;;5030166;28;20021;-59
2022/02/19 09:16:13;;;;;;;11.30;2.55;;;9.60;90.20;;;;;;5025526;28;20041;-59
2022/02/19 09:18:38;;;;;;;14.70;2.78;;;9.60;90.00;;;;;;5027660;28;20530;-59
2022/02/19 09:21:04;;;;;;;13.50;3.00;;;9.60;90.10;;;;;;5026677;28;20046;-59
2022/02/19 09:23:29;;;;;;;11.48;2.70;;;9.60;90.00;;;;;;5024448;28;20029;-62
2022/02/19 09:25:55;;;;;;;14.18;2.90;;;9.60;90.00;;;;;;5023829;28;20025;-62
2022/02/19 09:28:22;;;;;;;37.30;4.40;;;9.60;90.00;;;;;;5008808;28;20061;-60
2022/02/19 09:30:47;;;;;;;29.60;4.25;;;9.60;90.00;;;;;;5026919;28;20127;-64
2022/02/19 09:33:13;;;;;;;27.85;4.35;;;9.60;90.00;;;;;;5024774;28;20092;-61
2022/02/19 09:35:38;;;;;;;25.75;3.63;;;9.60;90.00;;;;;;5026901;28;20148;-64
2022/02/19 09:38:03;;;;;;;39.22;6.25;;;9.60;90.00;;;;;;5025821;28;20040;-59
2022/02/19 09:40:29;;;;;;;41.90;4.97;;;9.70;90.30;;;;;;5026388;28;20022;-60
2022/02/19 09:42:54;;;;;;;31.98;4.93;;;9.70;90.30;;;;;;5022746;28;20190;-60
2022/02/19 09:45:23;;;;;;;29.02;4.47;;;9.70;90.20;;;;;;5023333;28;20644;-58
2022/02/19 09:47:49;;;;;;;23.13;4.03;;;9.70;90.10;;;;;;5024689;28;20618;-62
2022/02/19 09:50:15;;;;;;;30.17;4.18;;;9.70;90.00;;;;;;5025730;28;20032;-61
2022/02/19 09:52:40;;;;;;;36.67;5.28;;;9.70;90.00;;;;;;5008506;28;20022;-60
2022/02/19 09:55:06;;;;;;;38.05;5.22;;;9.70;90.00;;;;;;5024788;28;20029;-60
2022/02/19 09:57:32;;;;;;;62.45;7.18;;;9.80;90.10;;;;;;5025278;28;20037;-60
2022/02/19 09:59:57;;;;;;;35.60;6.38;;;9.80;90.30;;;;;;5025394;28;20139;-60
2022/02/19 10:02:31;;;;;;;43.65;5.07;;;9.80;90.20;;;;;;5024956;28;20029;-60
2022/02/19 10:05:12;;;;;;;28.17;5.20;;;9.80;90.20;;;;;;5008039;28;20029;-61
2022/02/19 10:07:38;;;;;;;55.10;6.07;;;9.80;90.30;;;;;;5022483;28;20769;-63
2022/02/19 10:10:03;;;;;;;32.92;5.45;;;9.80;90.00;;;;;;5024467;28;20041;-60
2022/02/19 10:12:44;;;;;;;41.45;4.47;;;9.80;90.20;;;;;;5023388;28;20049;-62
2022/02/19 10:15:09;;;;;;;45.67;5.75;;;9.80;90.20;;;;;;5024298;28;20441;-59
2022/02/19 10:17:37;;;;;;;36.10;5.75;;;9.90;90.20;;;;;;5023333;28;20072;-60
2022/02/19 10:20:06;;;;;;;29.88;5.00;;;9.80;90.10;;;;;;5005031;28;20030;-65
2022/02/19 10:22:36;;;;;;;30.15;5.25;;;9.90;90.00;;;;;;5006615;28;20045;-60
2022/02/19 10:25:05;;;;;;;33.67;5.15;;;9.90;90.00;;;;;;5019515;28;20041;-60
2022/02/19 10:27:44;;;;;;;41.03;6.63;;;9.90;89.90;;;;;;5001869;28;20033;-62
2022/02/19 10:30:11;;;;;;;65.63;7.05;;;9.90;89.90;;;;;;5022822;28;20045;-60
2022/02/19 10:32:46;;;;;;;49.60;6.13;;;9.90;89.90;;;;;;5019834;28;20034;-63
2022/02/19 10:35:11;;;;;;;29.30;5.05;;;9.90;89.90;;;;;;5017217;28;20044;-62
2022/02/19 10:37:50;;;;;;;40.42;6.03;;;9.90;89.50;;;;;;5018520;28;20042;-61
2022/02/19 10:40:36;;;;;;;44.30;6.18;;;9.90;89.30;;;;;;5003732;28;20030;-61
2022/02/19 10:43:04;;;;;;;72.20;8.43;;;9.90;89.00;;;;;;5018509;28;20095;-61
2022/02/19 10:45:30;;;;;;;74.97;9.57;;;9.90;89.10;;;;;;5020217;28;20029;-62
2022/02/19 10:48:10;;;;;;;70.60;8.18;;;10.00;89.50;;;;;;5022875;28;20056;-60
2022/02/19 10:50:36;;;;;;;72.03;7.72;;;10.00;89.90;;;;;;5014416;28;20038;-59
2022/02/19 10:53:01;;;;;;;43.33;6.93;;;10.00;89.70;;;;;;5022637;28;20063;-61
2022/02/19 10:55:28;;;;;;;64.88;8.05;;;10.00;89.50;;;;;;5023378;28;20385;-63
2022/02/19 10:57:56;;;;;;;62.42;8.68;;;10.00;89.40;;;;;;5023640;28;20037;-60
2022/02/19 11:00:22;;;;;;;75.63;9.52;;;10.00;89.20;;;;;;5001397;28;20041;-62
2022/02/19 11:02:49;;;;;;;86.80;10.52;;;10.00;89.40;;;;;;5004755;28;20122;-62
2022/02/19 11:05:15;;;;;;;68.53;8.52;;;10.10;89.60;;;;;;5023190;28;20104;-59
2022/02/19 11:07:42;;;;;;;113.35;13.88;;;10.10;89.80;;;;;;5021925;28;20501;-60
2022/02/19 11:10:12;;;;;;;84.10;11.57;;;10.10;89.50;;;;;;5022527;28;20158;-62
2022/02/19 11:12:38;;;;;;;81.97;10.90;;;10.10;89.30;;;;;;5004664;28;20025;-60
2022/02/19 11:15:04;;;;;;;81.80;10.88;;;10.20;89.60;;;;;;5013179;28;20052;-60
2022/02/19 11:17:30;;;;;;;90.20;10.50;;;10.20;89.60;;;;;;5013850;28;20045;-63
2022/02/19 11:20:00;;;;;;;71.28;10.50;;;10.10;89.80;;;;;;5002278;28;20066;-57
2022/02/19 11:22:28;;;;;;;74.72;9.95;;;10.10;89.70;;;;;;5022128;28;20013;-59
2022/02/19 11:24:53;;;;;;;87.03;11.13;;;10.20;89.50;;;;;;5022194;28;20141;-62
2022/02/19 11:27:19;;;;;;;66.32;10.35;;;10.20;89.60;;;;;;5004297;28;20688;-63
2022/02/19 11:29:45;;;;;;;77.88;9.93;;;10.20;89.50;;;;;;5022863;28;20057;-59
2022/02/19 11:32:16;;;;;;;81.55;12.45;;;10.30;89.50;;;;;;5022906;28;20070;-61
2022/02/19 11:34:47;;;;;;;83.90;11.20;;;10.20;90.00;;;;;;5022405;28;20120;-59
2022/02/19 11:37:21;;;;;;;102.57;14.15;;;10.30;89.20;;;;;;5018225;28;20070;-60
2022/02/19 11:40:14;;;;;;;99.22;12.32;;;10.30;89.20;;;;;;5023646;28;20109;-59
2022/02/19 11:42:43;;;;;;;77.63;10.23;;;10.30;89.10;;;;;;5015614;28;20137;-59
2022/02/19 11:45:22;;;;;;;78.07;11.38;;;10.30;89.00;;;;;;5021492;28;20446;-61
2022/02/19 11:47:49;;;;;;;105.47;12.98;;;10.40;88.90;;;;;;5023782;28;20116;-62
2022/02/19 11:50:23;;;;;;;87.45;12.43;;;10.40;88.60;;;;;;5020362;28;20112;-60
2022/02/19 11:53:13;;;;;;;112.10;13.55;;;10.40;88.50;;;;;;5023151;28;20017;-58
2022/02/19 11:55:40;;;;;;;112.85;14.32;;;10.40;88.50;;;;;;5024034;28;20033;-62
2022/02/19 11:58:09;;;;;;;154.77;16.95;;;10.50;88.00;;;;;;5022894;28;20096;-59
2022/02/19 12:00:55;;;;;;;112.82;16.52;;;10.50;88.10;;;;;;5023016;28;20144;-62
2022/02/19 12:03:23;;;;;;;134.82;15.60;;;10.50;88.10;;;;;;5006110;28;20056;-62
2022/02/19 12:06:15;;;;;;;103.25;14.07;;;10.50;88.00;;;;;;5021738;28;20564;-59
2022/02/19 12:08:46;;;;;;;111.88;15.52;;;10.50;87.80;;;;;;5022351;28;20029;-62
2022/02/19 12:11:12;;;;;;;152.35;17.48;;;10.60;87.90;;;;;;5024224;28;20124;-61
2022/02/19 12:13:45;;;;;;;91.57;12.35;;;10.60;87.70;;;;;;5007936;28;20021;-60
2022/02/19 12:18:58;;;;;;;143.13;16.13;;;10.60;86.70;;;;;;5024055;28;20121;-61
2022/02/19 12:21:39;;;;;;;106.95;13.50;;;10.60;86.50;;;;;;5006583;28;20031;-63
2022/02/19 12:24:26;;;;;;;96.47;13.23;;;10.60;86.50;;;;;;5023857;28;20469;-59
2022/02/19 12:27:05;;;;;;;94.68;12.82;;;10.60;85.90;;;;;;5023243;28;20029;-59
2022/02/19 12:29:38;;;;;;;116.43;14.63;;;10.60;85.50;;;;;;5022087;28;20045;-63
2022/02/19 12:32:04;;;;;;;126.35;15.98;;;10.70;85.60;;;;;;5006861;28;20079;-62
2022/02/19 12:34:30;;;;;;;154.45;18.05;;;10.70;85.30;;;;;;5023722;28;20026;-61
2022/02/19 12:36:56;;;;;;;94.85;14.32;;;10.70;85.20;;;;;;5022342;28;20073;-62
2022/02/19 12:39:22;;;;;;;132.00;15.13;;;10.80;85.00;;;;;;5022747;28;20037;-61
2022/02/19 12:41:49;;;;;;;107.50;14.55;;;10.70;84.90;;;;;;5025045;28;20026;-60
2022/02/19 12:44:18;;;;;;;87.75;12.35;;;10.80;84.60;;;;;;5022041;28;20119;-60
2022/02/19 12:46:44;;;;;;;87.72;11.57;;;10.80;84.50;;;;;;5020816;28;20040;-62
2022/02/19 12:49:09;;;;;;;84.60;12.27;;;10.80;84.50;;;;;;5013364;28;20065;-63
2022/02/19 12:51:35;;;;;;;87.47;12.60;;;10.80;84.40;;;;;;5005719;28;20021;-63